createdAt,value
2022-12-13T00:02:10.506Z,8.07
2022-12-13T00:04:57.248Z,7.18
2022-12-13T00:07:43.976Z,7.47
2022-12-13T00:10:30.471Z,6.60
2022-12-13T00:13:16.810Z,5.90
2022-12-13T00:16:06.332Z,7.03
2022-12-13T00:18:55.726Z,6.55
2022-12-13T00:21:42.097Z,6.93
2022-12-13T00:24:29.066Z,6.50
2022-12-13T00:27:15.845Z,7.43
2022-12-13T00:30:02.532Z,6.57
2022-12-13T00:32:48.832Z,5.63
2022-12-13T00:35:41.321Z,5.80
2022-12-13T00:38:27.726Z,5.30
2022-12-13T00:41:19.787Z,5.85
2022-12-13T00:44:06.103Z,5.43
2022-12-13T00:46:53.434Z,5.22
2022-12-13T00:49:39.998Z,4.80
2022-12-13T00:52:26.612Z,4.97
2022-12-13T00:55:13.085Z,5.38
2022-12-13T00:58:01.756Z,5.05
2022-12-13T01:00:48.347Z,5.30
2022-12-13T01:03:35.049Z,4.70
2022-12-13T01:06:24.265Z,4.50
2022-12-13T01:09:22.655Z,5.60
2022-12-13T01:12:10.373Z,4.28
2022-12-13T01:14:57.115Z,4.75
2022-12-13T01:17:43.302Z,6.80
2022-12-13T01:20:30.298Z,5.63
2022-12-13T01:23:17.198Z,5.63
2022-12-13T01:26:06.173Z,5.68
2022-12-13T01:28:52.663Z,5.70
2022-12-13T01:31:41.934Z,6.47
2022-12-13T01:34:31.997Z,5.10
2022-12-13T01:37:20.600Z,5.60
2022-12-13T01:40:16.093Z,6.05
2022-12-13T01:43:03.349Z,6.47
2022-12-13T01:46:01.071Z,6.32
2022-12-13T01:49:19.770Z,5.60
2022-12-13T01:52:11.663Z,5.38
2022-12-13T01:57:51.957Z,6.30
2022-12-13T02:00:38.496Z,8.38
2022-12-13T02:03:27.740Z,6.57
2022-12-13T02:06:18.551Z,6.75
2022-12-13T02:09:06.817Z,6.07
2022-12-13T02:11:54.205Z,6.07
2022-12-13T02:14:41.148Z,6.13
2022-12-13T02:17:44.518Z,6.85
2022-12-13T02:21:01.210Z,7.38
2022-12-13T02:23:48.321Z,5.97
2022-12-13T02:26:48.373Z,7.30
2022-12-13T02:30:05.916Z,5.97
2022-12-13T02:33:05.135Z,6.90
2022-12-13T02:36:00.928Z,5.88
2022-12-13T02:39:09.842Z,6.80
2022-12-13T02:42:01.963Z,7.28
2022-12-13T02:44:55.985Z,5.93
2022-12-13T02:47:44.466Z,7.68
2022-12-13T02:50:32.296Z,6.45
2022-12-13T02:53:21.496Z,5.55
2022-12-13T02:56:08.607Z,5.95
2022-12-13T02:58:56.322Z,6.18
2022-12-13T03:01:49.900Z,5.45
2022-12-13T03:05:05.526Z,5.97
2022-12-13T03:07:55.554Z,6.53
2022-12-13T03:11:14.833Z,6.10
2022-12-13T03:14:07.756Z,6.22
2022-12-13T03:16:55.485Z,6.72
2022-12-13T03:19:41.976Z,5.32
2022-12-13T03:22:28.552Z,6.00
2022-12-13T03:25:15.695Z,4.80
2022-12-13T03:28:19.108Z,5.88
2022-12-13T03:31:06.577Z,5.03
2022-12-13T03:33:53.342Z,5.25
2022-12-13T03:36:39.891Z,5.78
2022-12-13T03:39:26.380Z,5.65
2022-12-13T03:42:12.696Z,4.80
2022-12-13T03:44:59.134Z,5.68
2022-12-13T03:47:45.820Z,5.68
2022-12-13T03:50:32.523Z,6.20
2022-12-13T03:53:22.261Z,5.93
2022-12-13T03:56:19.518Z,5.20
2022-12-13T03:59:06.113Z,5.07
2022-12-13T04:01:53.298Z,5.10
2022-12-13T04:04:40.129Z,6.65
2022-12-13T04:07:33.984Z,5.43
2022-12-13T04:10:26.404Z,5.78
2022-12-13T04:13:31.882Z,4.75
2022-12-13T04:16:18.328Z,5.18
2022-12-13T04:19:04.921Z,6.03
2022-12-13T04:21:54.576Z,7.93
2022-12-13T04:24:41.440Z,8.25
2022-12-13T04:27:27.622Z,12.85
2022-12-13T04:30:14.855Z,7.85
2022-12-13T04:33:01.915Z,12.80
2022-12-13T04:35:49.179Z,6.13
2022-12-13T04:38:35.781Z,5.80
2022-12-13T04:41:22.422Z,5.63
2022-12-13T04:44:29.112Z,6.05
2022-12-13T04:47:17.416Z,5.65
2022-12-13T04:50:03.953Z,5.55
2022-12-13T04:52:50.735Z,5.80
2022-12-13T04:55:38.472Z,7.03
2022-12-13T04:58:25.763Z,6.07
2022-12-13T05:01:12.659Z,6.45
2022-12-13T05:03:59.404Z,7.18
2022-12-13T05:06:45.462Z,10.43
2022-12-13T05:09:32.250Z,12.80
2022-12-13T05:12:23.123Z,12.40
2022-12-13T05:15:10.094Z,6.97
2022-12-13T05:18:10.129Z,8.63
2022-12-13T05:21:01.796Z,5.82
2022-12-13T05:23:48.188Z,5.82
2022-12-13T05:26:34.930Z,5.30
2022-12-13T05:29:21.053Z,5.53
2022-12-13T05:32:08.129Z,5.18
2022-12-13T05:34:54.483Z,5.50
2022-12-13T05:37:41.017Z,6.43
2022-12-13T05:40:29.448Z,9.40
2022-12-13T05:43:21.504Z,6.80
2022-12-13T05:46:08.878Z,7.45
2022-12-13T05:48:55.789Z,9.75
2022-12-13T05:51:44.030Z,8.50
2022-12-13T05:54:30.384Z,9.15
2022-12-13T05:57:16.419Z,8.70
2022-12-13T06:00:04.648Z,6.53
2022-12-13T06:03:01.161Z,6.05
2022-12-13T06:05:48.461Z,9.25
2022-12-13T06:08:35.236Z,10.65
2022-12-13T06:11:31.746Z,8.10
2022-12-13T06:14:22.686Z,7.22
2022-12-13T06:17:09.918Z,6.32
2022-12-13T06:19:56.109Z,6.90
2022-12-13T06:22:45.479Z,8.13
2022-12-13T06:25:32.112Z,7.15
2022-12-13T06:28:18.989Z,9.98
2022-12-13T06:31:05.935Z,9.35
2022-12-13T06:33:52.501Z,10.95
2022-12-13T06:36:38.827Z,9.30
2022-12-13T06:39:25.299Z,9.32
2022-12-13T06:42:21.438Z,12.52
2022-12-13T06:45:09.826Z,6.97
2022-12-13T06:47:57.351Z,6.93
2022-12-13T06:50:44.120Z,6.93
2022-12-13T06:53:31.614Z,6.45
2022-12-13T06:56:18.433Z,6.88
2022-12-13T06:59:04.751Z,7.60
2022-12-13T07:01:51.276Z,7.03
2022-12-13T07:04:37.821Z,7.57
2022-12-13T07:07:26.387Z,8.10
2022-12-13T07:10:22.798Z,12.07
2022-12-13T07:13:09.576Z,9.60
2022-12-13T07:16:00.890Z,8.40
2022-12-13T07:18:48.411Z,9.38
2022-12-13T07:21:36.506Z,7.53
2022-12-13T07:24:23.809Z,8.13
2022-12-13T07:27:10.606Z,11.13
2022-12-13T07:29:58.142Z,9.68
2022-12-13T07:32:45.024Z,7.47
2022-12-13T07:35:37.044Z,7.38
2022-12-13T07:38:25.055Z,9.48
2022-12-13T07:41:11.901Z,9.63
2022-12-13T07:44:01.533Z,10.15
2022-12-13T07:46:51.136Z,8.23
2022-12-13T07:49:38.488Z,9.18
2022-12-13T07:52:25.375Z,9.10
2022-12-13T07:55:11.591Z,7.38
2022-12-13T07:58:07.029Z,7.05
2022-12-13T08:01:03.071Z,7.75
2022-12-13T08:03:50.699Z,10.23
2022-12-13T08:06:38.498Z,13.85
2022-12-13T08:09:25.273Z,9.70
2022-12-13T08:12:11.833Z,9.05
2022-12-13T08:14:58.683Z,7.50
2022-12-13T08:17:47.198Z,13.43
2022-12-13T08:20:33.942Z,18.70
2022-12-13T08:23:20.311Z,18.40
2022-12-13T08:26:07.094Z,16.92
2022-12-13T08:28:53.956Z,10.00
2022-12-13T08:31:40.991Z,12.20
2022-12-13T08:34:27.611Z,11.63
2022-12-13T08:37:14.522Z,10.63
2022-12-13T08:40:01.215Z,7.47
2022-12-13T08:42:47.741Z,8.38
2022-12-13T08:45:34.555Z,7.38
2022-12-13T08:48:21.690Z,7.45
2022-12-13T08:51:12.040Z,7.20
2022-12-13T08:54:11.145Z,7.78
2022-12-13T08:56:58.369Z,6.63
2022-12-13T08:59:45.875Z,6.45
2022-12-13T09:02:37.675Z,7.43
2022-12-13T09:05:33.418Z,6.88
2022-12-13T09:08:23.378Z,6.53
2022-12-13T09:11:23.797Z,6.53
2022-12-13T09:14:18.751Z,6.47
2022-12-13T09:17:14.763Z,6.10
2022-12-13T09:20:29.538Z,5.88
2022-12-13T09:23:23.968Z,7.15
2022-12-13T09:26:15.007Z,7.18
2022-12-13T09:29:10.533Z,6.30
2022-12-13T09:31:58.083Z,6.40
2022-12-13T09:34:46.146Z,6.88
2022-12-13T09:37:32.493Z,5.57
2022-12-13T09:40:25.957Z,5.90
2022-12-13T09:43:21.639Z,6.28
2022-12-13T09:46:22.658Z,6.70
2022-12-13T09:49:38.808Z,6.25
2022-12-13T09:52:26.555Z,6.30
2022-12-13T09:55:20.467Z,7.53
2022-12-13T09:58:12.847Z,7.05
2022-12-13T10:01:00.430Z,6.63
2022-12-13T10:03:51.158Z,6.43
2022-12-13T10:06:38.047Z,6.00
2022-12-13T10:09:25.065Z,6.75
2022-12-13T10:12:14.741Z,7.85
2022-12-13T10:15:02.916Z,6.47
2022-12-13T10:17:55.544Z,7.60
2022-12-13T10:20:42.787Z,6.88
2022-12-13T10:23:42.670Z,7.00
2022-12-13T10:26:38.397Z,6.57
2022-12-13T10:29:24.941Z,7.18
2022-12-13T10:32:14.584Z,7.38
2022-12-13T10:35:02.084Z,7.25
2022-12-13T10:37:49.038Z,6.47
2022-12-13T10:40:37.855Z,6.30
2022-12-13T10:43:27.707Z,7.75
2022-12-13T10:46:25.161Z,12.00
2022-12-13T10:49:22.943Z,17.83
2022-12-13T10:52:34.137Z,8.40
2022-12-13T10:55:35.140Z,9.50
2022-12-13T10:58:23.302Z,11.45
2022-12-13T11:01:11.205Z,11.35
2022-12-13T11:04:01.788Z,8.90
2022-12-13T11:06:49.538Z,7.30
2022-12-13T11:09:38.958Z,9.18
2022-12-13T11:12:27.506Z,8.90
2022-12-13T11:15:23.054Z,9.13
2022-12-13T11:18:21.121Z,9.02
2022-12-13T11:21:08.111Z,7.45
2022-12-13T11:24:01.737Z,7.68
2022-12-13T11:27:03.278Z,7.22
2022-12-13T11:30:08.751Z,8.82
2022-12-13T11:33:19.190Z,7.78
2022-12-13T11:36:20.065Z,6.53
2022-12-13T11:39:46.061Z,6.72
2022-12-13T11:42:50.183Z,7.85
2022-12-13T11:45:43.449Z,7.03
2022-12-13T11:48:56.568Z,6.35
2022-12-13T11:52:03.476Z,6.65
2022-12-13T11:55:15.392Z,6.30
2022-12-13T11:58:16.641Z,5.82
2022-12-13T12:01:13.127Z,6.07
2022-12-13T12:04:12.992Z,7.10
2022-12-13T12:07:33.524Z,7.72
2022-12-13T12:10:47.335Z,6.65
2022-12-13T12:13:51.481Z,6.70
2022-12-13T12:16:38.220Z,5.72
2022-12-13T12:19:37.212Z,4.78
2022-12-13T12:22:42.021Z,5.93
2022-12-13T12:25:45.945Z,5.70
2022-12-13T12:29:12.279Z,5.50
2022-12-13T12:32:14.651Z,4.65
2022-12-13T12:35:16.396Z,5.97
2022-12-13T12:38:03.002Z,5.57
2022-12-13T12:41:18.385Z,5.47
2022-12-13T12:44:07.845Z,6.13
2022-12-13T12:47:48.936Z,10.27
2022-12-13T12:50:47.139Z,5.43
2022-12-13T12:53:45.134Z,8.85
2022-12-13T12:56:52.276Z,8.88
2022-12-13T13:00:01.340Z,6.10
2022-12-13T13:03:24.747Z,6.47
2022-12-13T13:06:14.930Z,8.00
2022-12-13T13:09:09.504Z,14.75
2022-12-13T13:11:57.695Z,14.95
2022-12-13T13:14:44.610Z,10.98
2022-12-13T13:17:31.710Z,10.73
2022-12-13T13:20:20.331Z,11.02
2022-12-13T13:23:38.677Z,8.32
2022-12-13T13:26:35.835Z,7.53
2022-12-13T13:29:26.975Z,6.57
2022-12-13T13:32:29.361Z,6.75
2022-12-13T13:35:28.986Z,16.50
2022-12-13T13:38:18.858Z,31.15
2022-12-13T13:41:41.582Z,26.05
2022-12-13T13:44:40.711Z,31.85
2022-12-13T13:47:27.405Z,32.53
2022-12-13T13:50:24.209Z,34.92
2022-12-13T13:53:58.254Z,46.78
2022-12-13T13:57:00.815Z,17.55
2022-12-13T14:00:09.871Z,21.70
2022-12-13T14:03:34.755Z,28.83
2022-12-13T14:07:04.178Z,28.77
2022-12-13T14:10:17.101Z,24.08
2022-12-13T14:13:21.747Z,18.23
2022-12-13T14:16:12.061Z,10.68
2022-12-13T14:19:38.147Z,9.60
2022-12-13T14:22:38.264Z,11.10
2022-12-13T14:25:40.299Z,9.88
2022-12-13T14:28:42.682Z,8.68
2022-12-13T14:34:24.860Z,9.60
2022-12-13T14:37:28.989Z,12.85
2022-12-13T14:40:49.183Z,11.60
2022-12-13T14:43:36.223Z,10.35
2022-12-13T14:46:22.685Z,10.95
2022-12-13T14:49:11.910Z,12.40
2022-12-13T14:52:30.405Z,12.57
2022-12-13T14:55:27.595Z,13.15
2022-12-13T14:58:19.799Z,16.23
2022-12-13T15:01:25.331Z,12.27
2022-12-13T15:04:22.972Z,14.27
2022-12-13T15:07:14.307Z,14.63
2022-12-13T15:10:04.095Z,15.90
2022-12-13T15:12:54.026Z,19.08
2022-12-13T15:15:41.381Z,18.00
2022-12-13T15:18:28.439Z,14.38
2022-12-13T15:24:19.581Z,11.45
2022-12-13T15:27:12.842Z,11.65
2022-12-13T15:29:59.550Z,11.80
2022-12-13T15:33:08.693Z,11.27
2022-12-13T15:36:13.792Z,10.13
2022-12-13T15:39:02.324Z,11.95
2022-12-13T15:41:49.664Z,12.60
2022-12-13T15:44:44.587Z,13.23
2022-12-13T15:47:34.670Z,12.98
2022-12-13T15:50:45.353Z,16.73
2022-12-13T15:53:35.587Z,18.40
2022-12-13T15:56:41.764Z,17.63
2022-12-13T15:59:31.531Z,14.57
2022-12-13T16:02:24.406Z,15.52
2022-12-13T16:05:24.946Z,14.70
2022-12-13T16:08:35.819Z,14.82
2022-12-13T16:11:48.042Z,12.23
2022-12-13T16:14:48.906Z,12.73
2022-12-13T16:17:36.738Z,13.35
2022-12-13T16:20:24.019Z,13.75
2022-12-13T16:23:26.477Z,15.95
2022-12-13T16:26:14.371Z,16.33
2022-12-13T16:29:01.287Z,14.38
2022-12-13T16:31:48.529Z,14.68
2022-12-13T16:34:35.248Z,13.90
2022-12-13T16:37:27.557Z,17.65
2022-12-13T16:40:25.687Z,16.52
2022-12-13T16:43:20.625Z,19.42
2022-12-13T16:47:16.805Z,21.33
2022-12-13T16:49:25.630Z,17.30
2022-12-13T16:52:12.369Z,21.15
2022-12-13T16:55:00.737Z,39.90
2022-12-13T16:58:04.100Z,25.80
2022-12-13T17:00:51.007Z,28.70
2022-12-13T17:03:45.341Z,32.78
2022-12-13T17:06:32.126Z,26.35
2022-12-13T17:09:19.280Z,23.15
2022-12-13T17:12:06.348Z,37.25
2022-12-13T17:14:52.833Z,30.00
2022-12-13T17:17:41.204Z,27.08
2022-12-13T17:20:27.685Z,29.30
2022-12-13T17:23:18.242Z,28.83
2022-12-13T17:26:08.159Z,28.90
2022-12-13T17:28:56.282Z,29.38
2022-12-13T17:31:44.295Z,26.08
2022-12-13T17:34:32.249Z,29.60
2022-12-13T17:37:19.856Z,25.60
2022-12-13T17:40:08.318Z,22.40
2022-12-13T17:42:58.967Z,21.38
2022-12-13T17:45:45.754Z,21.35
2022-12-13T17:48:40.790Z,21.83
2022-12-13T17:51:34.508Z,23.90
2022-12-13T17:54:26.343Z,23.80
2022-12-13T17:57:15.221Z,22.42
2022-12-13T18:02:59.577Z,22.30
2022-12-13T18:05:46.265Z,32.78
2022-12-13T18:08:37.999Z,46.97
2022-12-13T18:14:22.152Z,27.33
2022-12-13T18:17:09.461Z,35.10
2022-12-13T18:19:56.544Z,26.45
2022-12-13T18:22:47.010Z,45.88
2022-12-13T18:25:39.345Z,78.78
2022-12-13T18:28:26.215Z,44.85
2022-12-13T18:31:16.318Z,29.85
2022-12-13T18:34:03.353Z,30.45
2022-12-13T18:36:51.386Z,29.50
2022-12-13T18:39:38.325Z,28.48
2022-12-13T18:42:25.800Z,33.28
2022-12-13T18:45:12.376Z,36.13
2022-12-13T18:47:59.149Z,35.90
2022-12-13T18:50:48.873Z,44.90
2022-12-13T18:53:40.472Z,33.97
2022-12-13T18:56:27.401Z,26.10
2022-12-13T18:59:15.418Z,26.48
2022-12-13T19:02:04.483Z,25.20
2022-12-13T19:04:55.261Z,23.63
2022-12-13T19:07:46.375Z,56.30
2022-12-13T19:10:33.551Z,64.80
2022-12-13T19:13:20.702Z,147.80
2022-12-13T19:16:09.966Z,158.18
2022-12-13T19:18:58.629Z,182.98
2022-12-13T19:21:48.676Z,74.50
2022-12-13T19:24:37.692Z,58.20
2022-12-13T19:27:24.601Z,57.33
2022-12-13T19:30:11.669Z,65.03
2022-12-13T19:32:58.851Z,66.65
2022-12-13T19:35:46.793Z,105.63
2022-12-13T19:38:34.246Z,77.97
2022-12-13T19:41:23.860Z,63.85
2022-12-13T19:44:13.392Z,77.80
2022-12-13T19:47:00.187Z,91.57
2022-12-13T19:49:49.735Z,76.75
2022-12-13T19:52:36.251Z,80.55
2022-12-13T19:55:23.483Z,77.47
2022-12-13T19:58:10.442Z,69.55
2022-12-13T20:01:05.169Z,66.05
2022-12-13T20:03:55.317Z,55.65
2022-12-13T20:06:46.822Z,39.67
2022-12-13T20:09:35.174Z,46.72
2022-12-13T20:12:27.626Z,45.53
2022-12-13T20:15:17.110Z,49.63
2022-12-13T20:18:15.940Z,47.13
2022-12-13T20:21:25.981Z,47.65
2022-12-13T20:24:14.310Z,31.73
2022-12-13T20:27:05.121Z,31.67
2022-12-13T20:29:53.032Z,32.45
2022-12-13T20:32:43.189Z,30.63
2022-12-13T20:35:31.369Z,35.72
2022-12-13T20:38:18.633Z,47.20
2022-12-13T20:41:08.365Z,46.40
2022-12-13T20:43:58.068Z,31.30
2022-12-13T20:46:45.465Z,33.63
2022-12-13T20:49:33.300Z,30.50
2022-12-13T20:52:20.518Z,27.75
2022-12-13T20:55:07.830Z,27.95
2022-12-13T20:57:55.576Z,26.00
2022-12-13T21:00:42.730Z,27.23
2022-12-13T21:03:35.826Z,27.55
2022-12-13T21:09:16.624Z,36.35
2022-12-13T21:12:03.815Z,38.45
2022-12-13T21:14:51.907Z,39.50
2022-12-13T21:17:42.274Z,36.53
2022-12-13T21:20:32.207Z,49.05
2022-12-13T21:23:23.421Z,43.40
2022-12-13T21:26:13.458Z,34.53
2022-12-13T21:29:02.807Z,74.95
2022-12-13T21:31:50.701Z,60.08
2022-12-13T21:34:40.853Z,47.10
2022-12-13T21:37:31.550Z,46.67
2022-12-13T21:40:19.448Z,39.03
2022-12-13T21:43:06.896Z,32.45
2022-12-13T21:45:54.348Z,33.00
2022-12-13T21:48:43.118Z,35.25
2022-12-13T21:51:35.700Z,27.58
2022-12-13T21:54:23.017Z,28.75
2022-12-13T21:57:31.809Z,28.73
2022-12-13T22:00:23.181Z,31.15
2022-12-13T22:03:10.081Z,28.10
2022-12-13T22:05:57.184Z,30.10
2022-12-13T22:08:43.345Z,44.90
2022-12-13T22:11:31.282Z,52.78
2022-12-13T22:14:17.733Z,67.35
2022-12-13T22:17:07.025Z,59.00
2022-12-13T22:19:53.593Z,60.20
2022-12-13T22:22:41.587Z,59.70
2022-12-13T22:25:27.946Z,52.08
2022-12-13T22:28:15.527Z,52.70
2022-12-13T22:31:01.917Z,50.35
2022-12-13T22:33:51.603Z,46.85
2022-12-13T22:36:38.355Z,47.35
2022-12-13T22:39:25.116Z,39.97
2022-12-13T22:42:11.612Z,32.53
2022-12-13T22:44:58.131Z,33.60
2022-12-13T22:47:44.402Z,34.15
2022-12-13T22:50:31.033Z,35.17
2022-12-13T22:53:17.239Z,33.05
2022-12-13T22:56:08.453Z,31.58
2022-12-13T22:59:01.412Z,30.02
2022-12-13T23:01:48.700Z,36.70
2022-12-13T23:04:35.183Z,31.02
2022-12-13T23:07:22.011Z,29.05
2022-12-13T23:10:28.464Z,29.10
2022-12-13T23:13:15.425Z,31.17
2022-12-13T23:16:07.049Z,31.20
2022-12-13T23:19:05.428Z,29.85
2022-12-13T23:22:00.684Z,30.02
2022-12-13T23:24:47.335Z,31.55
2022-12-13T23:27:33.735Z,31.20
2022-12-13T23:30:20.429Z,31.58
2022-12-13T23:33:07.255Z,33.53
2022-12-13T23:35:59.044Z,29.73
2022-12-13T23:41:33.919Z,27.23
2022-12-13T23:44:20.958Z,31.92
2022-12-13T23:47:08.461Z,34.90
2022-12-13T23:49:54.912Z,34.17
2022-12-13T23:52:41.389Z,37.40
2022-12-13T23:55:28.043Z,31.65
2022-12-13T23:58:19.511Z,31.73
